Prototyping > MPW Runs > Mini@Sic runschedule

Europractice Mini@sic Runschedule

Application form for ams technologies

Application form for IHP technologies

for other technologies, it is not needed to fill in any application------>
DateTechnology
2010-03-22UMC L180 Mixed-Mode/RF - 1P6M
2010-03-22UMC L90 Mixed-Mode/RF 1P9M2T1F
2010-03-29LFoundry LF150 0.15u CMOS LDMOS 1P4M
2010-03-29LFoundry LF150 0.15u CMOS LP/RF - 1P6M + Thick Metal
2010-03-29LFoundry LF150 0.15u CMOS LP/RF - 1P6M
2010-03-29austriamicrosystems 0.18u CMOS C18 6M/1P/MiM
2010-04-02TSMC 90nm CMOS General or LP - MS/RF (12 inch)
2010-04-05AMIS 0.7u C07M-I2T30E 30V - 2M
2010-04-05AMIS 0.7u C07M-I2T30 30V - 2M
2010-04-05AMIS 0.7u C07M-I2T100 100V - 3M
2010-04-05AMIS 0.7u C07M-I2T100 100V - 2M
2010-04-05AMIS 0.7u C07M-A 2M/1P/PdiffC/HR
2010-04-05AMIS 0.7u C07mM-D 2M/1P
2010-04-12austriamicrosystems 0.35u CMOS C35OPTO
2010-04-12austriamicrosystems 0.35u CMOS C35B4C3
2010-04-12austriamicrosystems 0.35u CMOS C35B3C3
2010-04-12AMIS 0.35 C035 - I3T25 5M
2010-04-12AMIS 0.35 C035 - I3T25 4M
2010-04-12AMIS 0.35 C035 - I3T25 3M
2010-04-12AMIS 0.35u C035U 5M
2010-04-12AMIS 0.35u C035U 3M
2010-04-12AMIS 0.35u C035U 4M
2010-04-13AMIS 0.35u C035M-I3T80U 80V - 5M
2010-04-13AMIS 0.35u C035M-I3T80U 80V - 4M
2010-04-13AMIS 0.35u C035M-I3T80U 80V - 3M
2010-04-14TSMC 65nm CMOS LP Mixed-Signal/RF ACAD_EUR
2010-04-14TSMC 65nm CMOS Low Power Mixed-Signal/RF
2010-04-19AMIS 0.35u C035M-A 5M/2P/HR
2010-04-19AMIS 0.35u Co35M-D 5M/1P
2010-04-26UMC L130 Mixed-Mode/RF - 1P8M2T
2010-04-26IHP SG25H3 0.25u SiGe:C 5M
2010-04-26IHP SG25H1 0.25u SiGe:C 5M
2010-04-26IHP SGB25VGOD 0.25u SiGe:C 5M
2010-04-26IHP SGB25V 0.25u SiGe:C 5M
2010-04-26IHP SGB25V 0.25u SiGe:C
2010-04-26austriamicrosystems 0.35u HV CMOS H35 4M
2010-04-26austriamicrosystems 0.35u HV CMOS H35 3M
2010-05-03AMIS 0.5u C05M-A 3M/2P/HR
2010-05-03AMIS 0.5u C05M-D 3M/1P
2010-05-10austriamicrosystems 0.18u HV CMOS H18 50V 4M/MiM
2010-05-17AMIS 0.35u C035 - I3T50 50V 5M
2010-05-17AMIS 0.35u C035 - I3T50 50V 3M
2010-05-17AMIS 0.35u C035 - I3T50 50V 4M
2010-05-31LFoundry LF150 0.15u CMOS LDMOS - 1P6M
2010-05-31LFoundry LF150 0.15u CMOS LP/RF - 1P6M + Thick Metal
2010-05-31LFoundry LF150 0.15u CMOS LP/RF - 1P6M
2010-06-07austriamicrosystems 0.35u SiGe-BiCmos S35 - 4M/4P
2010-06-07AMIS 0.35u C035 - I3T25 5M
2010-06-07AMIS 0.35u C035 - I3T25 4M
2010-06-07AMIS 0.35u C035 - I3T25 3M
2010-06-07AMIS 0.35u C035U 5M
2010-06-07AMIS 0.35u C035U 3M
2010-06-07AMIS 0.35u C035U 4M
2010-06-21UMC L90 Mixed-Mode/RF 1P9M2T1F
2010-06-21AMIS 0.7u C07M-I2T30E 30V - 2M
2010-06-21AMIS 0.7u C07M-I2T30 30V - 2M
2010-06-21AMIS 0.7u C07M-I2T100 100V - 3M
2010-06-21AMIS 0.7u C07M-I2T100 100V - 2M
2010-06-21AMIS 0.7u C07M-A 2M/1P/PdiffC/HR
2010-06-21AMIS 0.7u C07M-D 2M/1P
2010-06-28LFoundry LF150 0.15u CMOS LDMOS - 1P4M
2010-06-28LFoundry LF150 0.15u CMOS LP/RF - 1P6M + Thick Metal
2010-06-28LFoundry LF150 0.15u CMOS LP/RF - 1P6M
2010-06-28AMIS 0.35u C035M-A 5M/2P/HR
2010-06-28AMIS 0.35u C035M-D 5M/1P
2010-07-01TSMC 90nm CMOS General - Lp MS/RF - LP Logic (12 inch)
2010-07-12UMC L180 Mixed-Mode/RF - 1P6M
2010-07-12austriamicrosystems 0.35u CMOS C35B43
2010-07-12austriamicrosystems 0.35u CMOS C35B3C3
2010-07-12AMIS 0.35u C035M-I3T80U 80V - 5
2010-07-12AMIS 0.35u C035M-I3T80U 80V - 4
2010-07-12AMIS 0.35u C035M-I3T80U 80V - 3M
2010-07-26UMC L130 Mixed-Mode/RF - 1P8M2T

All rights reserved